createdAt,value
2019-03-28T00:00:09.424Z,11.14
2019-03-28T00:05:17.119Z,12.19
2019-03-28T00:10:24.807Z,12.80
2019-03-28T00:15:33.074Z,11.96
2019-03-28T00:20:39.662Z,12.15
2019-03-28T00:25:47.335Z,13.72
2019-03-28T00:30:54.988Z,11.14
2019-03-28T00:36:02.691Z,12.82
2019-03-28T00:41:10.344Z,11.93
2019-03-28T00:46:18.015Z,13.53
2019-03-28T00:51:25.603Z,10.99
2019-03-28T00:56:44.970Z,11.77
2019-03-28T01:01:40.522Z,13.59
2019-03-28T01:06:48.188Z,13.23
2019-03-28T01:11:55.826Z,11.99
2019-03-28T01:17:03.482Z,10.45
2019-03-28T01:22:11.153Z,11.80
2019-03-28T01:27:18.890Z,10.48
2019-03-28T01:32:26.531Z,11.73
2019-03-28T01:37:34.286Z,12.38
2019-03-28T01:42:41.918Z,11.69
2019-03-28T01:52:52.518Z,10.46
2019-03-28T01:58:00.175Z,11.35
2019-03-28T02:03:07.813Z,11.14
2019-03-28T02:08:15.508Z,10.15
2019-03-28T02:13:23.142Z,11.30
2019-03-28T02:18:30.842Z,10.99
2019-03-28T02:23:38.506Z,12.29
2019-03-28T02:28:46.237Z,11.86
2019-03-28T02:33:53.875Z,11.97
2019-03-28T02:39:01.547Z,12.44
2019-03-28T02:44:09.173Z,13.09
2019-03-28T02:49:16.917Z,12.06
2019-03-28T02:54:24.524Z,12.79
2019-03-28T02:59:32.246Z,11.50
2019-03-28T03:04:39.875Z,12.69
2019-03-28T03:09:47.662Z,13.12
2019-03-28T03:14:55.230Z,11.57
2019-03-28T03:20:02.901Z,13.85
2019-03-28T03:25:10.558Z,13.21
2019-03-28T03:30:18.325Z,13.50
2019-03-28T03:35:25.968Z,13.83
2019-03-28T03:40:33.657Z,14.91
2019-03-28T03:45:41.295Z,13.59
2019-03-28T03:50:49.030Z,11.73
2019-03-28T03:55:56.649Z,13.17
2019-03-28T04:01:04.351Z,12.09
2019-03-28T04:06:12.021Z,13.47
2019-03-28T04:11:19.718Z,12.68
2019-03-28T04:16:27.383Z,13.00
2019-03-28T04:21:35.106Z,12.69
2019-03-28T04:26:42.730Z,11.81
2019-03-28T04:31:50.386Z,11.66
2019-03-28T04:36:58.019Z,11.47
2019-03-28T04:42:05.732Z,11.68
2019-03-28T04:47:13.378Z,12.69
2019-03-28T04:52:21.098Z,11.68
2019-03-28T04:57:29.563Z,11.48
2019-03-28T05:02:35.928Z,11.50
2019-03-28T05:07:43.570Z,11.10
2019-03-28T05:12:51.532Z,10.32
2019-03-28T05:17:58.480Z,11.92
2019-03-28T05:23:06.184Z,11.34
2019-03-28T05:28:13.820Z,11.92
2019-03-28T05:33:21.516Z,11.26
2019-03-28T05:38:29.190Z,11.19
2019-03-28T05:43:36.902Z,10.53
2019-03-28T05:48:44.558Z,10.57
2019-03-28T05:53:52.255Z,11.24
2019-03-28T05:59:10.268Z,10.84
2019-03-28T06:04:07.123Z,11.34
2019-03-28T06:09:14.759Z,10.88
2019-03-28T06:14:22.437Z,12.70
2019-03-28T06:19:30.080Z,11.23
2019-03-28T06:24:37.806Z,12.31
2019-03-28T06:29:45.427Z,10.69
2019-03-28T06:34:53.158Z,11.12
2019-03-28T06:40:00.838Z,10.86
2019-03-28T06:45:08.539Z,11.01
2019-03-28T06:50:16.184Z,11.17
2019-03-28T06:55:24.090Z,11.79
2019-03-28T07:00:31.037Z,11.24
2019-03-28T07:05:38.728Z,10.60
2019-03-28T07:10:46.365Z,12.27
2019-03-28T07:15:54.040Z,10.76
2019-03-28T07:21:01.714Z,10.37
2019-03-28T07:26:09.460Z,10.26
2019-03-28T07:31:17.109Z,9.65
2019-03-28T07:36:24.818Z,10.72
2019-03-28T07:41:32.467Z,13.93
2019-03-28T07:46:40.221Z,11.94
2019-03-28T07:51:47.813Z,10.41
2019-03-28T07:56:55.492Z,11.71
2019-03-28T08:02:03.111Z,10.55
2019-03-28T08:07:10.817Z,11.25
2019-03-28T08:12:22.840Z,9.43
2019-03-28T08:17:25.860Z,11.13
2019-03-28T08:22:33.500Z,12.02
2019-03-28T08:27:41.226Z,14.04
2019-03-28T08:32:48.867Z,10.10
2019-03-28T08:37:56.548Z,12.53
2019-03-28T08:43:04.217Z,12.64
2019-03-28T08:48:11.995Z,13.89
2019-03-28T08:53:19.618Z,14.41
2019-03-28T08:58:27.326Z,16.22
2019-03-28T09:03:34.954Z,15.40
2019-03-28T09:08:42.676Z,17.04
2019-03-28T09:13:50.345Z,17.75
2019-03-28T09:18:58.025Z,18.95
2019-03-28T09:24:05.675Z,20.32
2019-03-28T09:29:13.366Z,20.21
2019-03-28T09:34:20.985Z,22.12
2019-03-28T09:39:28.662Z,22.89
2019-03-28T09:44:36.287Z,22.57
2019-03-28T09:49:44.011Z,22.05
2019-03-28T09:54:51.686Z,23.72
2019-03-28T09:59:59.462Z,25.68
2019-03-28T10:05:07.108Z,22.46
2019-03-28T10:10:14.777Z,21.78
2019-03-28T10:15:22.396Z,21.67
2019-03-28T10:20:30.078Z,23.04
2019-03-28T10:25:37.744Z,22.60
2019-03-28T10:30:45.478Z,28.93
2019-03-28T10:35:53.106Z,25.60
2019-03-28T10:41:00.803Z,29.04
2019-03-28T10:46:08.465Z,28.95
2019-03-28T10:51:16.208Z,31.02
2019-03-28T10:56:24.282Z,28.64
2019-03-28T11:01:47.539Z,28.20
2019-03-28T11:06:38.366Z,31.02
2019-03-28T11:11:46.106Z,31.27
2019-03-28T11:16:53.775Z,32.62
2019-03-28T11:22:01.466Z,34.90
2019-03-28T11:27:09.089Z,33.70
2019-03-28T11:32:16.755Z,35.02
2019-03-28T11:37:26.368Z,33.52
2019-03-28T11:42:31.583Z,28.28
2019-03-28T11:47:39.241Z,28.10
2019-03-28T11:52:46.899Z,25.92
